Time;durP1;ratioP1;P1;durP2;ratioP2;P2;SDS_P1;SDS_P2;PMS_P1;PMS_P2;Temp;Humidity;BMP_temperature;BMP_pressure;BME280_temperature;BME280_humidity;BME280_pressure;Samples;Min_cycle;Max_cycle;Signal;HPM_P1;HPM_P2
2024/02/05 00:04:47;;;;;;;2.53;2.33;;;8.20;99.90;;;8.98;88.75;98689.81;10414718;28;20244;-65
2024/02/05 00:09:50;;;;;;;2.60;2.40;;;8.20;99.90;;;8.93;88.97;98696.25;10393920;28;20257;-65
2024/02/05 00:14:54;;;;;;;2.60;2.40;;;8.20;99.90;;;8.83;90.35;98698.84;10393397;28;20291;-66
2024/02/05 00:19:58;;;;;;;2.10;2.00;;;8.10;99.90;;;8.89;89.59;98698.44;10394378;28;20238;-65
2024/02/05 00:25:01;;;;;;;2.28;2.08;;;8.10;99.90;;;8.83;89.63;98708.16;10393880;28;20634;-66
2024/02/05 00:30:09;;;;;;;2.20;2.10;;;8.10;99.90;;;8.84;90.83;98703.16;10392241;28;20254;-66
2024/02/05 00:35:13;;;;;;;2.60;2.30;;;8.10;99.90;;;8.87;90.98;98706.00;10405090;28;20316;-66
2024/02/05 00:40:17;;;;;;;2.20;2.10;;;8.10;99.90;;;9.07;89.30;98704.06;10398073;28;20691;-66
2024/02/05 00:45:21;;;;;;;2.30;2.10;;;8.10;99.90;;;9.08;87.52;98706.75;10391512;28;20229;-66
2024/02/05 00:50:25;;;;;;;2.33;2.13;;;8.10;99.90;;;9.09;87.90;98705.06;10392994;28;20236;-66
2024/02/05 00:55:28;;;;;;;1.98;1.88;;;8.20;99.90;;;9.01;87.47;98705.38;10393108;28;20233;-66
2024/02/05 01:00:32;;;;;;;2.20;2.10;;;8.10;99.90;;;8.99;87.07;98703.50;10391924;28;20229;-65
2024/02/05 01:05:35;;;;;;;2.00;1.80;;;8.10;99.90;;;8.98;86.95;98706.78;10392048;28;20599;-65
2024/02/05 01:10:39;;;;;;;1.87;1.77;;;8.20;99.90;;;9.10;86.05;98705.19;10390380;28;20229;-66
2024/02/05 01:15:43;;;;;;;2.25;2.15;;;8.20;99.90;;;8.84;86.67;98726.13;10391102;28;20234;-66
2024/02/05 01:20:46;;;;;;;2.27;2.07;;;8.00;99.90;;;8.83;87.10;98742.19;10391780;28;20288;-65
2024/02/05 01:25:50;;;;;;;2.35;2.15;;;7.90;99.90;;;8.80;87.35;98736.84;10391226;28;20238;-66
2024/02/05 01:30:55;;;;;;;2.40;2.30;;;7.90;99.90;;;8.92;86.34;98742.00;10397525;28;20233;-66
2024/02/05 01:35:58;;;;;;;2.03;1.93;;;8.00;99.90;;;8.78;86.75;98751.13;10414691;28;20251;-66
2024/02/05 01:41:01;;;;;;;2.05;1.90;;;7.90;99.90;;;8.71;87.11;98744.69;10409170;28;20229;-67
2024/02/05 01:46:06;;;;;;;2.00;1.90;;;7.80;99.90;;;8.63;87.89;98750.81;10390262;28;20753;-66
2024/02/05 01:51:09;;;;;;;2.17;1.90;;;7.80;99.90;;;8.76;87.27;98742.50;10406468;28;20793;-66
2024/02/05 01:56:13;;;;;;;1.92;1.83;;;7.90;99.90;;;8.71;86.93;98738.69;10391241;28;20225;-66
2024/02/05 02:01:17;;;;;;;2.53;2.40;;;7.90;99.90;;;8.63;87.67;98745.72;10389882;28;20622;-66
2024/02/05 02:06:22;;;;;;;2.47;2.38;;;7.80;99.90;;;8.52;88.96;98757.59;10389315;28;20226;-66
2024/02/05 02:11:26;;;;;;;2.53;2.33;;;7.70;99.90;;;8.61;88.23;98754.91;10405666;28;20316;-66
2024/02/05 02:16:30;;;;;;;1.98;1.88;;;7.70;99.90;;;8.69;88.07;98752.97;10427749;28;20231;-66
2024/02/05 02:21:35;;;;;;;2.40;2.20;;;7.70;99.90;;;8.43;88.97;98751.78;10416263;28;20240;-66
2024/02/05 02:26:40;;;;;;;2.40;1.80;;;7.60;99.90;;;8.60;87.73;98737.84;10417138;28;20286;-65
2024/02/05 02:31:46;;;;;;;2.10;2.00;;;7.70;99.90;;;8.52;88.74;98739.78;10419988;28;20236;-66
2024/02/05 02:36:55;;;;;;;2.40;2.30;;;7.70;99.90;;;8.62;88.40;98737.97;10389440;28;20236;-65
2024/02/05 02:42:02;;;;;;;2.38;2.20;;;7.80;99.90;;;8.50;88.84;98730.25;10390444;28;20229;-65
2024/02/05 02:47:06;;;;;;;2.30;2.20;;;7.60;99.90;;;8.48;88.98;98735.22;10387300;28;20732;-65
2024/02/05 02:52:09;;;;;;;2.10;1.97;;;7.60;99.90;;;8.54;89.05;98735.69;10413589;28;20233;-66
2024/02/05 02:57:15;;;;;;;2.10;2.00;;;7.70;99.90;;;8.60;88.77;98734.41;10406882;28;20257;-66
2024/02/05 03:02:18;;;;;;;2.07;1.97;;;7.80;99.90;;;8.55;88.73;98737.47;10424231;28;20236;-65
2024/02/05 03:07:21;;;;;;;2.00;1.90;;;7.80;99.90;;;8.56;88.80;98740.94;10408786;28;20232;-65
2024/02/05 03:12:26;;;;;;;2.00;1.90;;;7.80;99.90;;;8.64;87.79;98731.31;10397198;28;20240;-65
2024/02/05 03:17:29;;;;;;;2.00;1.90;;;7.90;99.90;;;8.49;88.68;98729.34;10394822;28;20245;-66
2024/02/05 03:22:32;;;;;;;2.20;2.10;;;7.90;99.90;;;8.37;90.38;98730.00;10414933;28;20710;-66
2024/02/05 03:27:37;;;;;;;2.23;2.13;;;7.60;99.90;;;8.45;90.51;98734.97;10411019;28;20593;-65
2024/02/05 03:32:40;;;;;;;2.33;2.13;;;7.70;99.90;;;8.51;90.02;98739.66;10431688;28;20341;-65
2024/02/05 03:37:43;;;;;;;3.17;2.87;;;7.80;99.90;;;8.46;91.19;98741.84;10418370;28;20712;-66
2024/02/05 03:42:48;;;;;;;2.50;2.40;;;7.90;99.90;;;8.26;93.20;98741.88;10398496;28;20603;-65
2024/02/05 03:47:52;;;;;;;2.50;2.30;;;7.50;99.90;;;8.28;93.33;98740.34;10415131;28;20244;-65
2024/02/05 03:52:55;;;;;;;2.30;2.20;;;7.60;99.90;;;8.10;95.21;98755.06;10409656;28;20690;-66
2024/02/05 03:58:02;;;;;;;2.57;2.47;;;7.40;99.90;;;8.02;96.05;98749.34;10396314;28;20222;-66
2024/02/05 04:03:06;;;;;;;2.53;2.40;;;7.30;99.90;;;7.99;96.94;98746.53;10403459;28;20229;-66
2024/02/05 04:08:09;;;;;;;2.83;2.43;;;7.20;99.90;;;7.85;98.49;98742.88;10421572;28;20583;-66
2024/02/05 04:13:14;;;;;;;3.03;2.77;;;7.10;99.90;;;7.60;99.50;98741.63;10393966;28;20622;-65
2024/02/05 04:18:17;;;;;;;2.83;2.63;;;7.00;99.90;;;7.62;99.96;98740.97;10392094;28;20367;-65
2024/02/05 04:23:20;;;;;;;3.23;2.60;;;7.10;99.90;;;7.58;100.00;98756.75;10393007;28;20234;-66
2024/02/05 04:28:25;;;;;;;2.53;2.33;;;7.00;99.90;;;7.64;100.00;98742.00;10392493;28;20234;-65
2024/02/05 04:33:28;;;;;;;2.77;2.57;;;7.00;99.90;;;7.64;99.71;98741.09;10393952;28;20349;-66
2024/02/05 04:38:31;;;;;;;2.30;2.07;;;7.10;99.90;;;7.54;99.80;98758.91;10415751;28;20217;-65
2024/02/05 04:43:38;;;;;;;2.97;2.30;;;7.00;99.90;;;7.66;99.53;98753.19;10437669;28;20319;-65
2024/02/05 04:48:42;;;;;;;2.30;2.10;;;7.00;99.90;;;7.62;99.85;98753.69;10426463;28;20224;-66
2024/02/05 04:53:45;;;;;;;2.60;2.40;;;7.00;99.90;;;7.75;99.46;98747.06;10426655;28;20284;-65
2024/02/05 04:58:51;;;;;;;2.60;2.37;;;7.00;99.90;;;7.82;98.50;98752.78;10397110;28;20237;-65
2024/02/05 05:03:54;;;;;;;2.13;2.03;;;7.10;99.90;;;7.78;98.26;98760.03;10394288;28;20230;-65
2024/02/05 05:08:57;;;;;;;4.00;2.20;;;7.10;99.90;;;7.81;97.92;98765.38;10397858;28;20230;-65
2024/02/05 05:14:01;;;;;;;2.00;1.90;;;7.10;99.90;;;7.76;98.44;98775.19;10397315;28;20232;-65
2024/02/05 05:19:04;;;;;;;2.30;2.20;;;7.10;99.90;;;7.82;98.36;98775.69;10402320;28;20223;-65
2024/02/05 05:24:08;;;;;;;2.83;2.63;;;7.10;99.90;;;7.85;97.64;98769.97;10426856;28;20238;-66
2024/02/05 05:29:12;;;;;;;3.23;2.93;;;7.20;99.90;;;7.96;96.82;98774.28;10420088;28;20257;-65
2024/02/05 05:34:15;;;;;;;2.30;2.10;;;7.40;99.90;;;7.95;96.84;98775.03;10413004;28;20279;-66
2024/02/05 05:39:19;;;;;;;2.03;1.93;;;7.30;99.90;;;7.88;96.78;98780.41;10418937;28;20225;-65
2024/02/05 05:44:24;;;;;;;2.07;1.97;;;7.40;99.90;;;7.88;96.38;98788.03;10398428;28;20243;-64
2024/02/05 05:49:28;;;;;;;3.43;2.53;;;7.30;99.90;;;8.00;95.39;98788.16;10405082;28;20245;-65
2024/02/05 05:54:31;;;;;;;3.77;2.90;;;7.40;99.90;;;7.96;96.14;98766.66;10401023;28;20733;-65
2024/02/05 05:59:39;;;;;;;3.27;3.07;;;7.30;99.90;;;8.02;95.70;98769.69;10431719;28;20247;-65
2024/02/05 06:04:42;;;;;;;6.37;5.70;;;7.30;99.90;;;7.99;95.88;98761.81;10420663;28;21008;-65
2024/02/05 06:09:46;;;;;;;17.00;11.80;;;7.20;99.90;;;7.88;95.79;98758.38;10397697;28;20585;-65
2024/02/05 06:14:51;;;;;;;12.27;9.60;;;7.10;99.90;;;7.93;95.95;98751.13;10401439;28;20237;-65
2024/02/05 06:19:54;;;;;;;5.23;4.73;;;7.10;99.90;;;7.99;94.70;98740.56;10402364;28;20686;-65
2024/02/05 06:24:58;;;;;;;4.17;3.90;;;7.30;99.90;;;7.92;94.94;98762.06;10399950;28;20718;-65
2024/02/05 06:30:02;;;;;;;2.90;2.70;;;7.20;99.90;;;8.03;94.43;98758.75;10400492;28;20252;-65
2024/02/05 06:35:06;;;;;;;3.20;2.90;;;7.20;99.90;;;8.07;93.60;98765.88;10408917;28;20312;-65
2024/02/05 06:40:10;;;;;;;2.77;2.57;;;7.20;99.90;;;7.90;94.41;98771.25;10455383;28;20220;-66
2024/02/05 06:45:16;;;;;;;2.97;2.70;;;7.10;99.90;;;7.87;94.41;98776.09;10448214;28;20253;-65
2024/02/05 06:50:19;;;;;;;2.50;2.40;;;7.10;99.90;;;7.90;93.75;98767.03;10405553;28;20225;-65
2024/02/05 06:55:22;;;;;;;3.03;2.50;;;7.20;99.90;;;8.07;92.60;98768.41;10420061;28;20279;-65
2024/02/05 07:00:27;;;;;;;2.60;2.30;;;7.30;99.90;;;8.16;91.49;98752.13;10415844;28;20229;-65
2024/02/05 07:05:30;;;;;;;2.87;2.67;;;7.50;99.90;;;8.13;91.52;98761.28;10439593;28;20708;-65
2024/02/05 07:10:33;;;;;;;2.70;2.50;;;7.40;99.90;;;7.97;92.57;98768.44;10420895;28;20225;-65
2024/02/05 07:15:38;;;;;;;2.90;2.70;;;7.30;99.90;;;8.03;91.53;98778.22;10458876;28;20221;-65
2024/02/05 07:20:42;;;;;;;2.90;2.70;;;7.20;99.90;;;8.16;90.40;98785.22;10420805;28;20224;-65
2024/02/05 07:25:45;;;;;;;3.07;2.87;;;7.40;99.90;;;8.11;90.92;98792.47;10452039;28;20232;-65
2024/02/05 07:30:49;;;;;;;2.80;2.60;;;7.30;99.90;;;8.17;90.53;98792.06;10416461;28;20236;-65
2024/02/05 07:35:52;;;;;;;2.50;2.30;;;7.40;99.90;;;8.04;91.07;98793.63;10457113;28;20308;-65
2024/02/05 07:40:56;;;;;;;2.50;2.40;;;7.30;99.90;;;8.21;89.76;98814.47;10441861;28;20235;-65
2024/02/05 07:46:00;;;;;;;2.43;2.33;;;7.40;99.90;;;8.34;88.01;98802.84;10420132;28;20226;-65
2024/02/05 07:51:04;;;;;;;2.90;2.70;;;7.60;99.90;;;8.28;88.60;98806.56;10431445;28;20756;-65
2024/02/05 07:56:09;;;;;;;2.87;2.30;;;7.70;99.90;;;8.40;87.80;98799.94;10441883;28;20735;-65
2024/02/05 08:01:13;;;;;;;2.60;2.40;;;7.80;99.90;;;8.31;88.90;98814.47;10423491;28;20221;-65
2024/02/05 08:06:21;;;;;;;2.73;2.30;;;7.70;99.90;;;8.47;88.75;98814.97;10442284;28;20217;-65
2024/02/05 08:11:24;;;;;;;3.07;2.77;;;7.70;99.90;;;8.57;87.27;98809.84;10425577;28;20224;-65
2024/02/05 08:16:29;;;;;;;2.57;2.37;;;7.80;99.90;;;8.55;87.79;98797.72;10444424;28;20303;-65
2024/02/05 08:21:32;;;;;;;2.40;2.20;;;7.80;99.90;;;8.68;86.90;98805.59;10426047;28;20230;-65
2024/02/05 08:26:35;;;;;;;2.30;2.20;;;7.90;99.90;;;8.75;86.63;98791.69;10418346;28;20229;-65
2024/02/05 08:31:40;;;;;;;2.90;2.53;;;7.90;99.90;;;8.87;85.76;98797.75;10422250;28;20790;-65
2024/02/05 08:36:43;;;;;;;3.33;2.40;;;8.00;99.90;;;8.90;85.73;98803.09;10417183;28;20233;-65
2024/02/05 08:41:46;;;;;;;2.30;2.10;;;8.20;99.90;;;9.07;83.85;98799.31;10411048;28;20242;-65
2024/02/05 08:46:50;;;;;;;1.80;1.70;;;8.40;99.90;;;8.99;84.37;98795.28;10409106;28;20221;-65
2024/02/05 08:51:54;;;;;;;2.43;2.23;;;8.50;99.90;;;9.17;83.09;98790.72;10438101;28;20233;-65
2024/02/05 08:56:57;;;;;;;2.37;2.03;;;8.50;99.90;;;9.17;82.29;98785.63;10414471;28;20307;-65
2024/02/05 09:02:02;;;;;;;2.50;1.70;;;8.50;99.90;;;9.30;82.23;98782.34;10435776;28;20619;-65
2024/02/05 09:07:06;;;;;;;2.37;2.00;;;8.70;99.90;;;9.39;81.45;98786.50;10415471;28;20684;-65
2024/02/05 09:12:09;;;;;;;2.43;2.03;;;8.70;99.90;;;9.44;81.75;98787.75;10455934;28;20234;-65
2024/02/05 09:17:15;;;;;;;3.00;2.00;;;8.80;99.90;;;9.57;81.19;98786.13;10428530;28;20250;-65
2024/02/05 09:22:19;;;;;;;1.87;1.77;;;9.00;99.90;;;9.64;81.18;98793.44;10460873;28;20237;-65
2024/02/05 09:27:22;;;;;;;2.23;1.70;;;9.00;99.90;;;9.52;80.85;98792.53;10439589;28;20228;-65
2024/02/05 09:32:26;;;;;;;2.17;2.00;;;8.90;99.90;;;9.50;79.44;98799.16;10445818;28;20237;-65
2024/02/05 09:37:29;;;;;;;2.50;2.30;;;9.00;99.90;;;9.60;80.46;98794.00;10438413;28;20282;-65
2024/02/05 09:42:34;;;;;;;2.17;1.97;;;9.00;99.90;;;9.73;80.86;98794.16;10433488;28;20233;-65
2024/02/05 09:47:41;;;;;;;2.60;2.10;;;9.10;99.90;;;9.95;79.54;98795.75;10441387;28;20229;-65
2024/02/05 09:52:45;;;;;;;1.88;1.73;;;9.40;99.90;;;10.17;77.24;98794.03;10423235;28;20232;-65
2024/02/05 09:57:49;;;;;;;3.58;1.80;;;9.70;99.90;;;10.06;76.88;98790.66;10433024;28;20232;-65
2024/02/05 10:02:54;;;;;;;2.35;2.08;;;9.70;99.90;;;10.25;76.68;98787.81;10429380;28;20233;-65
2024/02/05 10:07:59;;;;;;;1.83;1.58;;;9.90;99.90;;;10.33;76.54;98790.94;10409583;28;20283;-65
2024/02/05 10:13:06;;;;;;;3.58;2.28;;;9.80;99.90;;;10.49;76.30;98785.28;10420565;28;20718;-65
2024/02/05 10:18:11;;;;;;;2.03;1.92;;;10.10;99.90;;;10.86;74.61;98785.38;10442254;28;20217;-64
2024/02/05 10:23:14;;;;;;;2.17;1.92;;;10.60;99.90;;;10.97;73.95;98784.44;10407110;28;20613;-65
2024/02/05 10:28:21;;;;;;;2.50;2.30;;;10.70;99.90;;;11.03;72.69;98779.75;10429500;28;20217;-64
2024/02/05 10:33:26;;;;;;;2.15;1.83;;;10.70;99.90;;;11.08;73.06;98783.53;10425060;28;20231;-65
2024/02/05 10:38:29;;;;;;;2.25;2.05;;;10.70;99.90;;;10.89;73.49;98775.34;10459819;28;20232;-65
2024/02/05 10:43:33;;;;;;;3.42;2.28;;;10.40;99.90;;;11.04;72.11;98776.41;10413737;28;20233;-67
2024/02/05 10:48:37;;;;;;;2.75;1.77;;;10.60;99.90;;;11.04;72.57;98766.19;10426317;28;20624;-63
2024/02/05 10:53:44;;;;;;;2.53;2.25;;;10.50;99.90;;;11.10;73.13;98761.47;10412222;28;20229;-66
2024/02/05 10:58:47;;;;;;;2.00;1.90;;;10.70;99.90;;;11.40;72.28;98751.59;10408581;28;20229;-65
2024/02/05 11:03:57;;;;;;;3.28;2.00;;;11.00;99.90;;;11.55;70.97;98737.25;10404773;28;20235;-66
2024/02/05 11:09:04;;;;;;;3.17;2.28;;;11.10;99.90;;;11.64;70.35;98727.63;10411451;28;20242;-65
2024/02/05 11:14:10;;;;;;;2.10;1.90;;;11.20;99.90;;;11.69;70.29;98726.28;10444685;28;20261;-66
2024/02/05 11:19:19;;;;;;;2.80;1.98;;;11.30;99.90;;;11.83;68.99;98719.50;10423433;28;20235;-66
2024/02/05 11:24:23;;;;;;;2.75;2.10;;;11.40;99.90;;;11.84;69.64;98700.78;10441369;28;20236;-66
2024/02/05 11:29:32;;;;;;;2.83;2.00;;;11.30;99.90;;;11.92;68.58;98698.75;10464986;28;20229;-66
2024/02/05 11:34:38;;;;;;;2.08;1.73;;;11.30;99.90;;;11.99;68.96;98688.13;10442785;28;20708;-66
2024/02/05 11:39:44;;;;;;;1.80;1.70;;;11.40;99.90;;;11.98;68.72;98688.03;10441365;28;20222;-67
2024/02/05 11:44:48;;;;;;;2.05;1.90;;;11.70;99.90;;;12.02;69.41;98672.97;10453736;28;20256;-66
2024/02/05 11:49:55;;;;;;;2.72;1.75;;;11.40;99.90;;;12.15;68.65;98672.94;10438766;28;20672;-65
2024/02/05 11:54:58;;;;;;;2.90;1.58;;;11.60;99.90;;;11.98;68.52;98662.41;10443758;28;20641;-67
2024/02/05 12:00:02;;;;;;;3.33;2.00;;;11.50;99.90;;;12.04;68.38;98648.31;10450019;28;20807;-67
2024/02/05 12:05:07;;;;;;;2.13;1.92;;;11.60;99.90;;;12.13;68.49;98648.91;10435994;28;20232;-66
2024/02/05 12:10:11;;;;;;;2.95;2.00;;;11.80;99.90;;;12.07;68.27;98634.81;10430158;28;20332;-65
2024/02/05 12:15:22;;;;;;;2.03;1.77;;;11.70;99.90;;;11.91;68.97;98631.28;10437594;28;20847;-65
2024/02/05 12:20:26;;;;;;;2.10;1.80;;;11.50;99.90;;;11.97;67.74;98630.78;10438228;28;20232;-66
2024/02/05 12:25:30;;;;;;;2.22;1.63;;;11.60;99.90;;;11.90;68.20;98613.22;10462347;28;20225;-65
2024/02/05 12:30:44;;;;;;;2.65;2.10;;;11.50;99.90;;;11.97;68.33;98609.41;10448591;28;21098;-66
2024/02/05 12:35:59;;;;;;;2.50;1.60;;;11.50;99.90;;;12.09;67.31;98603.38;10436461;28;20248;-66
2024/02/05 12:41:02;;;;;;;2.72;2.20;;;11.60;99.90;;;11.94;68.12;98599.84;10409839;28;20237;-65
2024/02/05 12:46:05;;;;;;;2.83;2.08;;;11.40;99.90;;;11.95;68.07;98597.38;10415784;28;20217;-66
2024/02/05 12:51:10;;;;;;;3.75;1.98;;;11.60;99.90;;;12.01;67.77;98589.19;10419996;28;20236;-65
2024/02/05 12:56:14;;;;;;;2.80;2.00;;;11.50;99.90;;;12.16;67.98;98576.44;10429604;28;20285;-66
2024/02/05 13:01:17;;;;;;;2.30;1.90;;;11.70;99.90;;;12.17;66.74;98579.09;10436797;28;20240;-66
2024/02/05 13:06:25;;;;;;;2.55;1.80;;;11.70;99.90;;;12.03;67.78;98564.56;10418022;28;20222;-66
2024/02/05 13:11:30;;;;;;;2.58;2.38;;;11.50;99.90;;;12.18;67.23;98555.25;10454175;28;20232;-67
2024/02/05 13:16:34;;;;;;;2.60;2.38;;;11.60;99.90;;;12.24;67.12;98535.91;10457203;28;20340;-67
2024/02/05 13:21:39;;;;;;;2.00;1.80;;;11.70;99.90;;;12.17;67.34;98543.22;10439672;28;20235;-67
2024/02/05 13:26:46;;;;;;;2.45;1.80;;;11.60;99.90;;;12.22;67.05;98528.16;10452037;28;20221;-67
2024/02/05 13:31:49;;;;;;;2.22;1.80;;;11.80;99.90;;;12.33;65.05;98529.69;10407233;28;20237;-67
2024/02/05 13:36:54;;;;;;;2.25;1.90;;;11.90;99.90;;;12.24;66.01;98517.97;10434909;28;20226;-67
2024/02/05 13:42:02;;;;;;;2.35;2.17;;;11.80;99.90;;;12.15;66.74;98511.50;10434681;28;20237;-67
2024/02/05 13:47:06;;;;;;;2.40;2.10;;;11.60;99.90;;;12.29;65.88;98506.31;10435047;28;20258;-67
2024/02/05 13:52:12;;;;;;;2.40;2.20;;;11.70;99.90;;;12.34;64.77;98495.56;10440071;28;20252;-67
2024/02/05 13:57:15;;;;;;;3.45;2.67;;;11.80;99.90;;;12.31;65.20;98491.94;10429589;28;20239;-66
2024/02/05 14:02:18;;;;;;;3.42;2.10;;;11.80;99.90;;;12.51;64.96;98494.00;10420910;28;20231;-68
2024/02/05 14:07:23;;;;;;;2.90;2.53;;;11.90;99.90;;;12.40;65.23;98490.78;10435931;28;20235;-67
2024/02/05 14:12:26;;;;;;;2.08;1.90;;;11.80;99.90;;;12.37;64.46;98494.88;10439230;28;20233;-67
2024/02/05 14:17:29;;;;;;;2.90;1.92;;;11.80;99.90;;;12.29;65.37;98480.69;10415431;28;20240;-67
2024/02/05 14:22:34;;;;;;;2.40;2.08;;;11.60;99.90;;;12.32;64.72;98481.75;10410046;28;20240;-66
2024/02/05 14:27:38;;;;;;;3.40;2.00;;;11.60;99.90;;;12.21;65.01;98480.22;10421109;28;20887;-67
2024/02/05 14:32:45;;;;;;;1.95;1.80;;;11.50;99.90;;;12.25;64.65;98476.19;10443415;28;20229;-67
2024/02/05 14:37:49;;;;;;;2.08;1.98;;;11.60;99.90;;;12.37;64.99;98475.25;10448258;28;20244;-68
2024/02/05 14:42:53;;;;;;;2.60;1.85;;;11.50;99.90;;;12.23;65.59;98462.38;10447933;28;20737;-67
2024/02/05 14:47:57;;;;;;;3.38;2.33;;;11.50;99.90;;;12.31;64.89;98458.63;10420685;28;20316;-67
2024/02/05 14:53:02;;;;;;;3.90;2.20;;;11.50;99.90;;;12.23;65.08;98450.44;10437444;28;20232;-67
2024/02/05 14:58:07;;;;;;;3.20;2.28;;;11.50;99.90;;;12.15;65.50;98446.53;10435168;28;20228;-66
2024/02/05 15:03:11;;;;;;;4.10;3.15;;;11.40;99.90;;;11.95;66.70;98450.47;10447819;28;20286;-67
2024/02/05 15:08:15;;;;;;;4.85;2.80;;;11.20;99.90;;;12.02;65.57;98444.94;10434968;28;20230;-67
2024/02/05 15:13:18;;;;;;;2.67;1.85;;;11.20;99.90;;;12.03;65.56;98431.31;10448196;28;20709;-67
2024/02/05 15:18:22;;;;;;;4.85;2.60;;;11.30;99.90;;;11.82;66.90;98430.00;10420628;28;20221;-68
2024/02/05 15:23:26;;;;;;;3.22;2.30;;;11.00;99.90;;;11.81;66.98;98423.06;10428992;28;20245;-67
2024/02/05 15:28:29;;;;;;;4.63;2.80;;;10.90;99.90;;;11.71;66.42;98419.97;10429573;28;20218;-67
2024/02/05 15:33:33;;;;;;;5.43;3.90;;;10.80;99.90;;;11.58;67.10;98412.31;10435140;28;20233;-66
2024/02/05 15:38:37;;;;;;;5.28;3.83;;;10.80;99.90;;;11.83;65.53;98401.00;10423102;28;20256;-66
2024/02/05 15:43:40;;;;;;;3.08;2.80;;;10.90;99.90;;;11.56;66.70;98401.09;10441486;28;20229;-68
2024/02/05 15:48:43;;;;;;;2.53;2.33;;;10.80;99.90;;;11.36;67.24;98401.50;10421117;28;20232;-67
2024/02/05 15:53:48;;;;;;;3.05;2.75;;;10.60;99.90;;;11.10;68.55;98402.44;10421438;28;20230;-67
2024/02/05 15:58:51;;;;;;;3.03;2.72;;;10.40;99.90;;;10.93;69.22;98403.91;10439215;28;20232;-67
2024/02/05 16:03:56;;;;;;;3.50;2.65;;;10.20;99.90;;;10.77;69.89;98397.81;10420690;28;20265;-67
2024/02/05 16:09:01;;;;;;;3.08;2.78;;;10.00;99.90;;;10.62;70.77;98394.28;10411243;28;20740;-67
2024/02/05 16:14:07;;;;;;;2.92;2.72;;;9.80;99.90;;;10.47;70.91;98395.81;10406008;28;20260;-66
2024/02/05 16:19:10;;;;;;;3.58;2.92;;;9.60;99.90;;;10.23;71.93;98388.25;10406249;28;20226;-66
2024/02/05 16:24:24;;;;;;;3.55;3.25;;;9.40;99.90;;;10.03;73.46;98381.81;10414389;28;20253;-67
2024/02/05 16:29:27;;;;;;;4.40;3.60;;;9.20;99.90;;;9.86;73.23;98387.44;10415347;28;20241;-68
2024/02/05 16:34:31;;;;;;;5.95;5.25;;;9.00;99.90;;;9.69;75.03;98386.28;10399398;28;20608;-65
2024/02/05 16:39:35;;;;;;;8.35;6.65;;;8.80;99.90;;;9.42;76.59;98382.72;10407295;28;20225;-69
2024/02/05 16:44:38;;;;;;;6.63;6.03;;;8.50;99.90;;;9.25;76.66;98381.53;10414543;28;20234;-67
2024/02/05 16:49:42;;;;;;;6.32;5.70;;;8.40;99.90;;;9.05;77.71;98380.13;10410954;28;20232;-67
2024/02/05 16:54:46;;;;;;;7.75;6.47;;;8.20;99.90;;;8.85;79.00;98376.16;10395288;28;20226;-68
2024/02/05 16:59:50;;;;;;;5.10;4.63;;;8.00;99.90;;;8.65;79.82;98382.34;10412952;28;20225;-67
2024/02/05 17:04:53;;;;;;;5.18;4.30;;;7.80;99.90;;;8.47;81.51;98381.91;10409948;28;20248;-68
2024/02/05 17:09:58;;;;;;;4.82;4.30;;;7.60;99.90;;;8.30;82.50;98388.25;10432375;28;20229;-66
2024/02/05 17:15:01;;;;;;;8.75;6.45;;;7.40;99.90;;;8.10;83.61;98384.22;10417763;28;20706;-67
2024/02/05 17:20:06;;;;;;;5.17;4.70;;;7.20;99.90;;;7.92;84.64;98371.75;10412704;28;20304;-67
2024/02/05 17:25:10;;;;;;;5.47;4.00;;;7.00;99.90;;;7.71;85.21;98371.03;10430118;28;20230;-66
2024/02/05 17:30:14;;;;;;;4.40;4.00;;;6.90;99.90;;;7.70;85.21;98372.69;10411954;28;20229;-67
2024/02/05 17:35:17;;;;;;;5.30;4.90;;;6.90;99.90;;;7.63;86.00;98367.91;10407633;28;20237;-68
2024/02/05 17:40:22;;;;;;;5.30;4.80;;;6.90;99.90;;;7.54;86.53;98363.00;10432124;28;20220;-67
2024/02/05 17:45:26;;;;;;;5.93;4.90;;;6.80;99.90;;;7.52;87.03;98369.59;10428578;28;20758;-66
2024/02/05 17:50:31;;;;;;;5.97;5.37;;;6.70;99.90;;;7.52;87.25;98374.69;10395820;28;20230;-67
2024/02/05 17:55:36;;;;;;;6.47;5.80;;;6.70;99.90;;;7.46;88.61;98376.78;10395703;28;20229;-65
2024/02/05 18:00:40;;;;;;;7.10;6.40;;;6.60;99.90;;;7.34;88.44;98376.72;10423329;28;20228;-67
2024/02/05 18:05:43;;;;;;;9.53;7.70;;;6.50;99.90;;;7.27;88.80;98386.28;10398748;28;20319;-64
2024/02/05 18:10:48;;;;;;;10.27;8.90;;;6.50;99.90;;;7.19;89.42;98389.13;10418645;28;20762;-66
2024/02/05 18:15:52;;;;;;;10.13;7.60;;;6.30;99.90;;;7.00;89.79;98391.84;10405415;28;20229;-64
2024/02/05 18:20:55;;;;;;;10.00;8.30;;;6.10;99.90;;;6.88;90.59;98384.91;10397242;28;20681;-66
2024/02/05 18:26:00;;;;;;;11.37;8.90;;;6.10;99.90;;;6.77;91.78;98384.94;10409465;28;20241;-67
2024/02/05 18:31:03;;;;;;;11.47;9.73;;;6.00;99.90;;;6.72;92.17;98381.16;10413480;28;20339;-66
2024/02/05 18:36:07;;;;;;;14.67;11.93;;;5.90;99.90;;;6.64;92.46;98378.75;10405026;28;20717;-66
2024/02/05 18:41:12;;;;;;;13.40;11.97;;;5.80;99.90;;;6.49;92.95;98373.31;10393564;28;20244;-67
2024/02/05 18:46:16;;;;;;;13.53;10.70;;;5.70;99.90;;;6.44;94.27;98366.97;10437472;28;20538;-67
2024/02/05 18:51:20;;;;;;;10.63;9.57;;;5.60;99.90;;;6.16;94.33;98352.06;10411447;28;20257;-67
2024/02/05 18:56:24;;;;;;;11.57;10.37;;;5.40;99.90;;;6.12;94.75;98357.63;10407241;28;20234;-65
2024/02/05 19:01:27;;;;;;;9.97;9.07;;;5.30;99.90;;;6.00;95.09;98349.03;10392228;28;20245;-67
2024/02/05 19:06:30;;;;;;;9.60;8.70;;;5.20;99.90;;;5.84;95.32;98340.13;10387219;28;20592;-67
2024/02/05 19:11:54;;;;;;;9.23;8.00;;;5.10;99.90;;;5.81;95.72;98342.41;10388499;28;20352;-63
2024/02/05 19:16:57;;;;;;;9.03;8.00;;;5.00;99.90;;;5.71;95.91;98331.34;10428010;28;20332;-65
2024/02/05 19:22:03;;;;;;;10.90;8.33;;;4.90;99.90;;;5.57;96.39;98335.28;10443689;28;20239;-67
2024/02/05 19:27:08;;;;;;;10.97;8.73;;;4.80;99.90;;;5.50;95.82;98333.88;10435315;28;20325;-67
2024/02/05 19:32:11;;;;;;;10.50;9.27;;;4.70;99.90;;;5.41;96.50;98323.84;10399935;28;20233;-67
2024/02/05 19:37:15;;;;;;;14.87;12.97;;;4.50;99.90;;;5.23;96.89;98318.88;10404892;28;20653;-66
2024/02/05 19:42:20;;;;;;;13.37;11.67;;;4.40;99.90;;;5.18;97.39;98305.81;10403001;28;20233;-67
2024/02/05 19:47:23;;;;;;;12.13;10.00;;;4.40;99.90;;;5.13;97.69;98315.56;10398504;28;20673;-66
2024/02/05 19:52:26;;;;;;;14.70;10.43;;;4.30;99.90;;;5.09;97.18;98332.88;10398682;28;20326;-67
2024/02/05 19:57:31;;;;;;;10.50;8.50;;;4.20;99.90;;;5.00;97.44;98321.97;10405393;28;20271;-67
2024/02/05 20:02:34;;;;;;;11.30;9.67;;;4.10;99.90;;;4.86;97.28;98319.13;10416309;28;20225;-67
2024/02/05 20:07:38;;;;;;;13.10;11.23;;;4.00;99.90;;;4.75;97.94;98314.81;10417644;28;20221;-67
2024/02/05 20:12:43;;;;;;;15.97;14.27;;;4.00;99.90;;;4.67;97.85;98311.59;10409647;28;20222;-67
2024/02/05 20:17:47;;;;;;;28.50;22.07;;;3.90;99.90;;;4.55;98.55;98309.63;10415506;28;20226;-67
2024/02/05 20:22:51;;;;;;;22.40;17.77;;;3.80;99.90;;;4.46;100.00;98308.09;10423004;28;20221;-64
2024/02/05 20:27:55;;;;;;;21.97;16.67;;;3.70;99.90;;;4.43;99.85;98306.91;10420288;28;20299;-67
2024/02/05 20:32:59;;;;;;;15.33;12.97;;;3.70;99.90;;;4.33;99.70;98301.81;10431339;28;21008;-67
2024/02/05 20:38:02;;;;;;;13.93;12.33;;;3.60;99.90;;;4.21;99.69;98309.22;10417004;28;20232;-66
2024/02/05 20:43:06;;;;;;;14.07;8.90;;;3.40;99.90;;;4.13;99.75;98310.19;10418341;28;20680;-65
2024/02/05 20:48:10;;;;;;;8.90;8.07;;;3.30;99.90;;;3.95;100.00;98301.81;10412055;28;20229;-66
2024/02/05 20:53:13;;;;;;;9.70;8.70;;;3.30;99.90;;;3.80;100.00;98298.81;10408898;28;20245;-67
2024/02/05 20:58:17;;;;;;;11.80;8.70;;;3.20;99.90;;;3.82;100.00;98304.91;10414497;28;20238;-64
2024/02/05 21:03:22;;;;;;;11.37;9.73;;;3.20;99.90;;;3.87;100.00;98306.22;10413806;28;20237;-66
2024/02/05 21:08:27;;;;;;;11.20;8.53;;;3.20;99.90;;;3.78;100.00;98292.75;10411056;28;20225;-64
2024/02/05 21:13:32;;;;;;;8.50;7.60;;;3.10;99.90;;;3.77;100.00;98296.00;10409309;28;20243;-67
2024/02/05 21:18:35;;;;;;;10.57;8.23;;;3.00;99.90;;;3.74;100.00;98285.63;10405560;28;20325;-65
2024/02/05 21:23:38;;;;;;;10.23;9.20;;;2.90;99.90;;;3.67;100.00;98283.31;10408455;28;20238;-64